Appleton, Illinois
Current Conditions -  °F | °C
As of 12:15 PM on Monday 26 Jan 2015 (Local Time) from KGBG Reporting Station
Overcast Overcast  
Wind Chill: 18°   Ceiling: 2600
Heat Index: 26°   Visibility: 10mi
Dew Point: 25°   Wind: 8mph
Humidity: 93%   Direction: 160°SSE
Pressure: 29.86"   Gusts: NA
Location:  40.9602°N, 90.1517°W
Report Text: KGBG 261815Z AUTO 16007KT 10SM SCT007 BKN026 OVC032 M03/M04 A2986 RMK AO2 T10311041
Loading
Personal Weather Stations






























Interactive Weather Map New forecast layout! Learn more

10-Day Weather Forecast

Advertisements
Track Severe Weather on mobile